sensor_id;sensor_type;location;lat;lon;timestamp;pressure;altitude;pressure_sealevel;temperature;humidity
6208;BME280;3137;51.550;7.060;2022-11-21T00:00:23;100093.97;;;2.64;89.10
6208;BME280;3137;51.550;7.060;2022-11-21T00:02:50;100098.38;;;2.63;88.67
6208;BME280;3137;51.550;7.060;2022-11-21T00:05:17;100100.16;;;2.63;88.97
6208;BME280;3137;51.550;7.060;2022-11-21T00:07:44;100100.34;;;2.60;88.77
6208;BME280;3137;51.550;7.060;2022-11-21T00:10:11;100104.59;;;2.62;88.77
6208;BME280;3137;51.550;7.060;2022-11-21T00:12:38;100099.47;;;2.59;88.45
6208;BME280;3137;51.550;7.060;2022-11-21T00:15:05;100101.97;;;2.62;88.03
6208;BME280;3137;51.550;7.060;2022-11-21T00:17:32;100106.63;;;2.57;88.48
6208;BME280;3137;51.550;7.060;2022-11-21T00:19:58;100105.84;;;2.55;88.47
6208;BME280;3137;51.550;7.060;2022-11-21T00:22:25;100109.50;;;2.52;88.68
6208;BME280;3137;51.550;7.060;2022-11-21T00:24:51;100112.91;;;2.54;88.09
6208;BME280;3137;51.550;7.060;2022-11-21T00:27:19;100120.75;;;2.56;88.63
6208;BME280;3137;51.550;7.060;2022-11-21T00:29:46;100114.72;;;2.54;88.71
6208;BME280;3137;51.550;7.060;2022-11-21T00:32:12;100123.72;;;2.50;88.25
6208;BME280;3137;51.550;7.060;2022-11-21T00:34:38;100116.78;;;2.47;88.41
6208;BME280;3137;51.550;7.060;2022-11-21T00:37:05;100116.69;;;2.49;88.62
6208;BME280;3137;51.550;7.060;2022-11-21T00:39:31;100117.47;;;2.51;88.60
6208;BME280;3137;51.550;7.060;2022-11-21T00:41:57;100121.91;;;2.50;88.08
6208;BME280;3137;51.550;7.060;2022-11-21T00:44:24;100116.84;;;2.46;88.45
6208;BME280;3137;51.550;7.060;2022-11-21T00:46:50;100115.00;;;2.48;88.04
6208;BME280;3137;51.550;7.060;2022-11-21T00:49:17;100114.22;;;2.46;88.50
6208;BME280;3137;51.550;7.060;2022-11-21T00:51:43;100114.31;;;2.44;88.59
6208;BME280;3137;51.550;7.060;2022-11-21T00:54:09;100116.94;;;2.44;88.37
6208;BME280;3137;51.550;7.060;2022-11-21T00:56:36;100119.59;;;2.44;88.36
6208;BME280;3137;51.550;7.060;2022-11-21T00:59:02;100118.72;;;2.44;88.09
6208;BME280;3137;51.550;7.060;2022-11-21T01:01:29;100120.44;;;2.45;87.95
6208;BME280;3137;51.550;7.060;2022-11-21T01:03:56;100127.38;;;2.47;88.05
6208;BME280;3137;51.550;7.060;2022-11-21T01:06:26;100121.84;;;2.52;87.83
6208;BME280;3137;51.550;7.060;2022-11-21T01:08:52;100123.94;;;2.45;87.88
6208;BME280;3137;51.550;7.060;2022-11-21T01:11:19;100124.94;;;2.43;87.88
6208;BME280;3137;51.550;7.060;2022-11-21T01:13:47;100124.94;;;2.43;87.74
6208;BME280;3137;51.550;7.060;2022-11-21T01:16:16;100124.16;;;2.41;88.19
6208;BME280;3137;51.550;7.060;2022-11-21T01:18:43;100122.44;;;2.40;88.45
6208;BME280;3137;51.550;7.060;2022-11-21T01:21:19;100126.00;;;2.39;87.83
6208;BME280;3137;51.550;7.060;2022-11-21T01:23:47;100132.06;;;2.41;88.15
6208;BME280;3137;51.550;7.060;2022-11-21T01:26:17;100137.31;;;2.42;88.07
6208;BME280;3137;51.550;7.060;2022-11-21T01:28:45;100134.88;;;2.38;87.67
6208;BME280;3137;51.550;7.060;2022-11-21T01:31:26;100138.16;;;2.43;87.71
6208;BME280;3137;51.550;7.060;2022-11-21T01:33:53;100146.03;;;2.44;87.96
6208;BME280;3137;51.550;7.060;2022-11-21T01:36:23;100142.50;;;2.44;87.85
6208;BME280;3137;51.550;7.060;2022-11-21T01:38:52;100143.44;;;2.43;87.79
6208;BME280;3137;51.550;7.060;2022-11-21T01:41:21;100143.28;;;2.46;87.81
6208;BME280;3137;51.550;7.060;2022-11-21T01:43:48;100139.72;;;2.47;88.24
6208;BME280;3137;51.550;7.060;2022-11-21T01:46:22;100137.09;;;2.47;88.01
6208;BME280;3137;51.550;7.060;2022-11-21T01:49:05;100136.19;;;2.46;88.07
6208;BME280;3137;51.550;7.060;2022-11-21T01:51:40;100130.91;;;2.46;87.92
6208;BME280;3137;51.550;7.060;2022-11-21T01:56:56;100139.50;;;2.51;87.97
6208;BME280;3137;51.550;7.060;2022-11-21T02:02:20;100141.22;;;2.52;87.95
6208;BME280;3137;51.550;7.060;2022-11-21T02:04:49;100135.91;;;2.52;88.23
6208;BME280;3137;51.550;7.060;2022-11-21T02:07:19;100144.69;;;2.53;88.27
6208;BME280;3137;51.550;7.060;2022-11-21T02:09:50;100150.06;;;2.51;87.96
6208;BME280;3137;51.550;7.060;2022-11-21T02:12:24;100144.00;;;2.49;87.98
6208;BME280;3137;51.550;7.060;2022-11-21T02:14:53;100149.28;;;2.49;88.19
6208;BME280;3137;51.550;7.060;2022-11-21T02:17:20;100145.78;;;2.49;87.90
6208;BME280;3137;51.550;7.060;2022-11-21T02:20:00;100140.47;;;2.49;87.72
6208;BME280;3137;51.550;7.060;2022-11-21T02:25:08;100145.69;;;2.50;87.69
6208;BME280;3137;51.550;7.060;2022-11-21T02:27:35;100142.16;;;2.51;88.13
6208;BME280;3137;51.550;7.060;2022-11-21T02:30:04;100149.19;;;2.51;87.85
6208;BME280;3137;51.550;7.060;2022-11-21T02:32:43;100151.00;;;2.50;87.68
6208;BME280;3137;51.550;7.060;2022-11-21T02:35:15;100142.50;;;2.44;88.00
6208;BME280;3137;51.550;7.060;2022-11-21T02:37:46;100145.91;;;2.46;87.65
6208;BME280;3137;51.550;7.060;2022-11-21T02:40:17;100149.41;;;2.46;87.41
6208;BME280;3137;51.550;7.060;2022-11-21T02:42:59;100149.63;;;2.42;87.75
6208;BME280;3137;51.550;7.060;2022-11-21T02:45:37;100154.78;;;2.45;87.50
6208;BME280;3137;51.550;7.060;2022-11-21T02:48:04;100149.63;;;2.42;87.44
6208;BME280;3137;51.550;7.060;2022-11-21T02:50:33;100151.50;;;2.40;87.21
6208;BME280;3137;51.550;7.060;2022-11-21T02:53:01;100148.00;;;2.39;87.77
6208;BME280;3137;51.550;7.060;2022-11-21T02:55:28;100158.50;;;2.41;87.69
6208;BME280;3137;51.550;7.060;2022-11-21T02:57:55;100153.22;;;2.41;87.62
6208;BME280;3137;51.550;7.060;2022-11-21T03:00:30;100156.81;;;2.40;87.90
6208;BME280;3137;51.550;7.060;2022-11-21T03:02:56;100151.50;;;2.40;87.53
6208;BME280;3137;51.550;7.060;2022-11-21T03:05:23;100150.63;;;2.39;87.95
6208;BME280;3137;51.550;7.060;2022-11-21T03:07:49;100156.81;;;2.40;87.53
6208;BME280;3137;51.550;7.060;2022-11-21T03:10:16;100157.50;;;2.43;87.97
6208;BME280;3137;51.550;7.060;2022-11-21T03:12:43;100154.06;;;2.41;87.59
6208;BME280;3137;51.550;7.060;2022-11-21T03:15:12;100149.63;;;2.42;87.65
6208;BME280;3137;51.550;7.060;2022-11-21T03:17:39;100152.94;;;2.47;87.34
6208;BME280;3137;51.550;7.060;2022-11-21T03:20:06;100150.50;;;2.42;87.35
6208;BME280;3137;51.550;7.060;2022-11-21T03:22:33;100149.63;;;2.42;87.55
6208;BME280;3137;51.550;7.060;2022-11-21T03:25:00;100153.22;;;2.41;87.89
6208;BME280;3137;51.550;7.060;2022-11-21T03:27:26;100155.84;;;2.41;88.02
6208;BME280;3137;51.550;7.060;2022-11-21T03:29:53;100149.72;;;2.40;87.52
6208;BME280;3137;51.550;7.060;2022-11-21T03:32:19;100157.72;;;2.39;87.60
6208;BME280;3137;51.550;7.060;2022-11-21T03:34:45;100153.38;;;2.38;87.53
6208;BME280;3137;51.550;7.060;2022-11-21T03:37:12;100151.50;;;2.40;87.89
6208;BME280;3137;51.550;7.060;2022-11-21T03:39:38;100151.44;;;2.41;87.57
6208;BME280;3137;51.550;7.060;2022-11-21T03:42:04;100147.09;;;2.40;87.71
6208;BME280;3137;51.550;7.060;2022-11-21T03:44:31;100152.38;;;2.40;87.55
6208;BME280;3137;51.550;7.060;2022-11-21T03:46:57;100148.78;;;2.41;87.38
6208;BME280;3137;51.550;7.060;2022-11-21T03:49:24;100148.78;;;2.41;87.60
6208;BME280;3137;51.550;7.060;2022-11-21T03:51:50;100148.78;;;2.41;87.98
6208;BME280;3137;51.550;7.060;2022-11-21T03:54:16;100139.00;;;2.43;87.88
6208;BME280;3137;51.550;7.060;2022-11-21T03:56:43;100144.13;;;2.46;87.69
6208;BME280;3137;51.550;7.060;2022-11-21T03:59:09;100139.00;;;2.43;87.96
6208;BME280;3137;51.550;7.060;2022-11-21T04:01:35;100143.44;;;2.43;88.04
6208;BME280;3137;51.550;7.060;2022-11-21T04:04:03;100141.66;;;2.43;87.81
6208;BME280;3137;51.550;7.060;2022-11-21T04:06:29;100145.13;;;2.44;87.44
6208;BME280;3137;51.550;7.060;2022-11-21T04:08:57;100145.13;;;2.44;87.88
6208;BME280;3137;51.550;7.060;2022-11-21T04:11:23;100134.09;;;2.36;87.81
6208;BME280;3137;51.550;7.060;2022-11-21T04:13:50;100134.88;;;2.38;87.70
6208;BME280;3137;51.550;7.060;2022-11-21T04:16:17;100136.56;;;2.39;87.63
6208;BME280;3137;51.550;7.060;2022-11-21T04:18:44;100141.94;;;2.37;87.84
6208;BME280;3137;51.550;7.060;2022-11-21T04:21:10;100135.94;;;2.33;87.74
6208;BME280;3137;51.550;7.060;2022-11-21T04:23:36;100142.66;;;2.41;87.86
6208;BME280;3137;51.550;7.060;2022-11-21T04:26:03;100139.31;;;2.37;87.85
6208;BME280;3137;51.550;7.060;2022-11-21T04:28:30;100146.34;;;2.37;88.11
6208;BME280;3137;51.550;7.060;2022-11-21T04:31:01;100138.38;;;2.38;87.88
6208;BME280;3137;51.550;7.060;2022-11-21T04:33:35;100144.44;;;2.40;87.70
6208;BME280;3137;51.550;7.060;2022-11-21T04:36:01;100144.50;;;2.39;88.16
6208;BME280;3137;51.550;7.060;2022-11-21T04:38:28;100145.44;;;2.38;88.03
6208;BME280;3137;51.550;7.060;2022-11-21T04:40:54;100146.28;;;2.38;88.09
6208;BME280;3137;51.550;7.060;2022-11-21T04:43:21;100152.38;;;2.40;88.28
6208;BME280;3137;51.550;7.060;2022-11-21T04:45:47;100147.09;;;2.40;87.99
6208;BME280;3137;51.550;7.060;2022-11-21T04:48:13;100143.72;;;2.37;87.79
6208;BME280;3137;51.550;7.060;2022-11-21T04:50:40;100142.72;;;2.39;88.30
6208;BME280;3137;51.550;7.060;2022-11-21T04:53:06;100136.16;;;2.29;87.86
6208;BME280;3137;51.550;7.060;2022-11-21T04:55:32;100148.47;;;2.30;88.10
6208;BME280;3137;51.550;7.060;2022-11-21T04:57:59;100145.66;;;2.33;87.88
6208;BME280;3137;51.550;7.060;2022-11-21T05:00:26;100144.59;;;2.37;87.98
6208;BME280;3137;51.550;7.060;2022-11-21T05:02:52;100149.94;;;2.36;88.53
6208;BME280;3137;51.550;7.060;2022-11-21T05:05:19;100149.09;;;2.35;88.50
6208;BME280;3137;51.550;7.060;2022-11-21T05:07:45;100143.81;;;2.35;87.88
6208;BME280;3137;51.550;7.060;2022-11-21T05:10:12;100150.56;;;2.41;87.60
6208;BME280;3137;51.550;7.060;2022-11-21T05:12:38;100135.88;;;2.35;88.01
6208;BME280;3137;51.550;7.060;2022-11-21T05:15:23;100130.81;;;2.30;87.99
6208;BME280;3137;51.550;7.060;2022-11-21T05:17:51;100131.88;;;2.26;88.33
6208;BME280;3137;51.550;7.060;2022-11-21T05:20:17;100125.75;;;2.26;87.67
6208;BME280;3137;51.550;7.060;2022-11-21T05:22:44;100146.03;;;2.25;88.52
6208;BME280;3137;51.550;7.060;2022-11-21T05:25:15;100148.22;;;2.34;88.05
6208;BME280;3137;51.550;7.060;2022-11-21T05:27:42;100144.50;;;2.20;88.22
6208;BME280;3137;51.550;7.060;2022-11-21T05:30:10;100143.28;;;2.27;88.19
6208;BME280;3137;51.550;7.060;2022-11-21T05:32:36;100134.72;;;2.22;88.30
6208;BME280;3137;51.550;7.060;2022-11-21T05:35:03;100149.66;;;2.23;88.29
6208;BME280;3137;51.550;7.060;2022-11-21T05:37:29;100150.38;;;2.26;88.13
6208;BME280;3137;51.550;7.060;2022-11-21T05:39:56;100146.78;;;2.27;88.37
6208;BME280;3137;51.550;7.060;2022-11-21T05:42:22;100151.94;;;2.30;88.32
6208;BME280;3137;51.550;7.060;2022-11-21T05:45:08;100151.94;;;2.30;88.39
6208;BME280;3137;51.550;7.060;2022-11-21T05:47:35;100143.81;;;2.35;88.11
6208;BME280;3137;51.550;7.060;2022-11-21T05:50:01;100147.34;;;2.34;88.18
6208;BME280;3137;51.550;7.060;2022-11-21T05:52:28;100144.66;;;2.36;88.45
6208;BME280;3137;51.550;7.060;2022-11-21T05:54:54;100140.22;;;2.36;88.27
6208;BME280;3137;51.550;7.060;2022-11-21T05:57:20;100137.59;;;2.36;88.22
6208;BME280;3137;51.550;7.060;2022-11-21T05:59:47;100128.81;;;2.36;87.95
6208;BME280;3137;51.550;7.060;2022-11-21T06:02:13;100125.38;;;2.33;88.27
6208;BME280;3137;51.550;7.060;2022-11-21T06:04:58;100128.16;;;2.30;88.23
6208;BME280;3137;51.550;7.060;2022-11-21T06:07:24;100129.88;;;2.31;87.98
6208;BME280;3137;51.550;7.060;2022-11-21T06:09:51;100130.03;;;2.28;88.41
6208;BME280;3137;51.550;7.060;2022-11-21T06:12:17;100132.88;;;2.24;88.25
6208;BME280;3137;51.550;7.060;2022-11-21T06:14:50;100131.19;;;2.23;88.68
6208;BME280;3137;51.550;7.060;2022-11-21T06:17:17;100122.38;;;2.22;88.52
6208;BME280;3137;51.550;7.060;2022-11-21T06:19:43;100121.88;;;2.14;88.75
6208;BME280;3137;51.550;7.060;2022-11-21T06:22:09;100120.09;;;2.15;88.77
6208;BME280;3137;51.550;7.060;2022-11-21T06:24:36;100117.47;;;2.15;88.75
6208;BME280;3137;51.550;7.060;2022-11-21T06:27:02;100109.47;;;2.16;88.48
6208;BME280;3137;51.550;7.060;2022-11-21T06:29:28;100109.84;;;2.08;89.23
6208;BME280;3137;51.550;7.060;2022-11-21T06:31:55;100109.84;;;2.08;88.82
6208;BME280;3137;51.550;7.060;2022-11-21T06:34:21;100102.13;;;2.04;88.90
6208;BME280;3137;51.550;7.060;2022-11-21T06:36:47;100098.75;;;2.00;89.35
6208;BME280;3137;51.550;7.060;2022-11-21T06:39:14;100093.31;;;2.03;88.89
6208;BME280;3137;51.550;7.060;2022-11-21T06:41:41;100098.34;;;2.09;88.83
6208;BME280;3137;51.550;7.060;2022-11-21T06:44:07;100098.34;;;2.09;88.75
6208;BME280;3137;51.550;7.060;2022-11-21T06:46:34;100094.53;;;2.15;88.57
6208;BME280;3137;51.550;7.060;2022-11-21T06:49:00;100088.63;;;2.10;89.61
6208;BME280;3137;51.550;7.060;2022-11-21T06:51:26;100088.25;;;1.99;89.60
6208;BME280;3137;51.550;7.060;2022-11-21T06:53:55;100085.63;;;1.99;89.15
6208;BME280;3137;51.550;7.060;2022-11-21T06:56:23;100091.56;;;2.04;89.71
6208;BME280;3137;51.550;7.060;2022-11-21T06:58:51;100091.25;;;2.10;89.47
6208;BME280;3137;51.550;7.060;2022-11-21T07:01:17;100099.81;;;2.15;89.30
6208;BME280;3137;51.550;7.060;2022-11-21T07:03:44;100093.41;;;2.21;89.16
6208;BME280;3137;51.550;7.060;2022-11-21T07:06:10;100093.19;;;2.25;89.30
6208;BME280;3137;51.550;7.060;2022-11-21T07:08:37;100096.47;;;2.30;89.77
6208;BME280;3137;51.550;7.060;2022-11-21T07:11:08;100104.88;;;2.39;89.05
6208;BME280;3137;51.550;7.060;2022-11-21T07:13:51;100102.31;;;2.37;89.61
6208;BME280;3137;51.550;7.060;2022-11-21T07:16:18;100108.28;;;2.41;89.08
6208;BME280;3137;51.550;7.060;2022-11-21T07:18:44;100108.94;;;2.46;89.15
6208;BME280;3137;51.550;7.060;2022-11-21T07:21:10;100102.56;;;2.50;89.13
6208;BME280;3137;51.550;7.060;2022-11-21T07:23:37;100106.91;;;2.51;88.85
6208;BME280;3137;51.550;7.060;2022-11-21T07:26:06;100100.00;;;2.48;89.59
6208;BME280;3137;51.550;7.060;2022-11-21T07:28:33;100108.56;;;2.53;89.31
6208;BME280;3137;51.550;7.060;2022-11-21T07:31:00;100115.19;;;2.62;89.17
6208;BME280;3137;51.550;7.060;2022-11-21T07:33:26;100102.75;;;2.64;88.89
6208;BME280;3137;51.550;7.060;2022-11-21T07:35:56;100100.72;;;2.69;89.64
6208;BME280;3137;51.550;7.060;2022-11-21T07:38:24;100102.44;;;2.70;89.11
6208;BME280;3137;51.550;7.060;2022-11-21T07:40:51;100105.16;;;2.69;89.21
6208;BME280;3137;51.550;7.060;2022-11-21T07:43:19;100105.84;;;2.72;89.68
6208;BME280;3137;51.550;7.060;2022-11-21T07:45:45;100106.72;;;2.73;89.19
6208;BME280;3137;51.550;7.060;2022-11-21T07:48:11;100100.28;;;2.79;89.47
6208;BME280;3137;51.550;7.060;2022-11-21T07:50:38;100094.59;;;2.86;89.71
6208;BME280;3137;51.550;7.060;2022-11-21T07:53:06;100096.47;;;2.84;89.35
6208;BME280;3137;51.550;7.060;2022-11-21T07:55:33;100094.53;;;2.88;88.86
6208;BME280;3137;51.550;7.060;2022-11-21T07:58:10;100088.47;;;2.86;89.24
6208;BME280;3137;51.550;7.060;2022-11-21T08:00:39;100093.75;;;2.86;89.47
6208;BME280;3137;51.550;7.060;2022-11-21T08:03:07;100094.59;;;2.86;89.14
6208;BME280;3137;51.550;7.060;2022-11-21T08:05:37;100095.38;;;2.88;89.57
6208;BME280;3137;51.550;7.060;2022-11-21T08:08:05;100080.84;;;2.97;88.94
6208;BME280;3137;51.550;7.060;2022-11-21T08:10:32;100086.59;;;2.88;89.63
6208;BME280;3137;51.550;7.060;2022-11-21T08:12:58;100086.59;;;2.88;89.11
6208;BME280;3137;51.550;7.060;2022-11-21T08:15:25;100082.78;;;2.93;88.73
6208;BME280;3137;51.550;7.060;2022-11-21T08:17:51;100072.19;;;2.93;89.70
6208;BME280;3137;51.550;7.060;2022-11-21T08:20:17;100072.28;;;2.92;89.03
6208;BME280;3137;51.550;7.060;2022-11-21T08:22:44;100063.94;;;2.82;89.87
6208;BME280;3137;51.550;7.060;2022-11-21T08:25:10;100070.03;;;2.84;90.25
6208;BME280;3137;51.550;7.060;2022-11-21T08:27:37;100064.34;;;2.92;89.92
6208;BME280;3137;51.550;7.060;2022-11-21T08:30:06;100065.97;;;2.94;89.55
6208;BME280;3137;51.550;7.060;2022-11-21T08:32:33;100069.56;;;2.93;89.76
6208;BME280;3137;51.550;7.060;2022-11-21T08:34:59;100074.31;;;3.04;89.96
6208;BME280;3137;51.550;7.060;2022-11-21T08:37:26;100061.16;;;3.03;89.87
6208;BME280;3137;51.550;7.060;2022-11-21T08:39:54;100068.09;;;3.05;90.31
6208;BME280;3137;51.550;7.060;2022-11-21T08:42:20;100068.75;;;3.09;90.05
6208;BME280;3137;51.550;7.060;2022-11-21T08:44:47;100062.56;;;3.10;90.11
6208;BME280;3137;51.550;7.060;2022-11-21T08:47:13;100050.09;;;3.12;90.17
6208;BME280;3137;51.550;7.060;2022-11-21T08:49:40;100055.22;;;3.15;90.19
6208;BME280;3137;51.550;7.060;2022-11-21T08:52:06;100041.22;;;3.13;90.27
6208;BME280;3137;51.550;7.060;2022-11-21T08:54:33;100044.47;;;3.18;89.93
6208;BME280;3137;51.550;7.060;2022-11-21T08:56:59;100050.66;;;3.18;89.73
6208;BME280;3137;51.550;7.060;2022-11-21T08:59:25;100055.59;;;3.25;90.05
6208;BME280;3137;51.550;7.060;2022-11-21T09:01:52;100057.34;;;3.26;90.58
6208;BME280;3137;51.550;7.060;2022-11-21T09:04:18;100050.91;;;3.30;89.90
6208;BME280;3137;51.550;7.060;2022-11-21T09:06:45;100062.75;;;3.40;90.67
6208;BME280;3137;51.550;7.060;2022-11-21T09:09:11;100059.56;;;3.33;90.16
6208;BME280;3137;51.550;7.060;2022-11-21T09:11:37;100050.00;;;3.31;90.26
6208;BME280;3137;51.550;7.060;2022-11-21T09:14:04;100045.03;;;3.25;90.38
6208;BME280;3137;51.550;7.060;2022-11-21T09:16:49;100057.47;;;3.23;90.66
6208;BME280;3137;51.550;7.060;2022-11-21T09:19:34;100046.75;;;3.26;91.36
6208;BME280;3137;51.550;7.060;2022-11-21T09:22:00;100038.41;;;3.33;90.66
6208;BME280;3137;51.550;7.060;2022-11-21T09:24:26;100040.63;;;3.41;90.32
6208;BME280;3137;51.550;7.060;2022-11-21T09:26:53;100035.56;;;3.36;91.22
6208;BME280;3137;51.550;7.060;2022-11-21T09:29:19;100039.00;;;3.38;91.24
6208;BME280;3137;51.550;7.060;2022-11-21T09:31:46;100038.84;;;3.41;91.12
6208;BME280;3137;51.550;7.060;2022-11-21T09:34:12;100038.16;;;3.38;90.85
6208;BME280;3137;51.550;7.060;2022-11-21T09:36:38;100032.94;;;3.36;91.66
6208;BME280;3137;51.550;7.060;2022-11-21T09:39:05;100020.47;;;3.38;91.06
6208;BME280;3137;51.550;7.060;2022-11-21T09:44:49;100026.50;;;3.58;91.73
6208;BME280;3137;51.550;7.060;2022-11-21T09:50:02;100030.00;;;3.74;90.56
6208;BME280;3137;51.550;7.060;2022-11-21T09:52:39;100024.34;;;3.80;91.35
6208;BME280;3137;51.550;7.060;2022-11-21T09:55:19;100032.81;;;3.87;90.35
6208;BME280;3137;51.550;7.060;2022-11-21T09:57:48;100029.75;;;3.95;90.60
6208;BME280;3137;51.550;7.060;2022-11-21T10:00:20;100031.22;;;4.00;89.83
6208;BME280;3137;51.550;7.060;2022-11-21T10:02:48;100023.28;;;4.00;90.39
6208;BME280;3137;51.550;7.060;2022-11-21T10:05:15;100030.19;;;4.03;90.71
6208;BME280;3137;51.550;7.060;2022-11-21T10:07:42;100016.94;;;4.03;90.70
6208;BME280;3137;51.550;7.060;2022-11-21T10:10:49;100010.53;;;4.07;90.54
6208;BME280;3137;51.550;7.060;2022-11-21T10:13:35;100002.41;;;4.10;89.93
6208;BME280;3137;51.550;7.060;2022-11-21T10:16:22;100002.22;;;4.13;90.48
6208;BME280;3137;51.550;7.060;2022-11-21T10:19:12;99988.31;;;4.10;90.58
6208;BME280;3137;51.550;7.060;2022-11-21T10:21:56;99979.50;;;4.09;90.69
6208;BME280;3137;51.550;7.060;2022-11-21T10:24:51;99972.22;;;4.29;90.41
6208;BME280;3137;51.550;7.060;2022-11-21T10:30:22;99968.25;;;4.36;90.14
6208;BME280;3137;51.550;7.060;2022-11-21T10:32:52;99966.09;;;4.42;90.82
6208;BME280;3137;51.550;7.060;2022-11-21T10:35:25;99960.88;;;4.41;90.09
6208;BME280;3137;51.550;7.060;2022-11-21T10:40:39;99956.25;;;4.44;90.00
6208;BME280;3137;51.550;7.060;2022-11-21T10:43:32;99945.72;;;4.43;90.61
6208;BME280;3137;51.550;7.060;2022-11-21T10:46:18;99939.75;;;4.39;90.90
6208;BME280;3137;51.550;7.060;2022-11-21T10:48:57;99929.72;;;4.44;90.55
6208;BME280;3137;51.550;7.060;2022-11-21T10:51:46;99915.16;;;4.52;91.42
6208;BME280;3137;51.550;7.060;2022-11-21T10:54:16;99915.56;;;4.60;91.25
6208;BME280;3137;51.550;7.060;2022-11-21T10:57:10;99917.84;;;4.66;90.96
6208;BME280;3137;51.550;7.060;2022-11-21T10:59:37;99922.78;;;4.72;91.11
6208;BME280;3137;51.550;7.060;2022-11-21T11:04:39;99920.78;;;4.90;91.13
6208;BME280;3137;51.550;7.060;2022-11-21T11:07:25;99910.31;;;5.03;91.38
6208;BME280;3137;51.550;7.060;2022-11-21T11:10:13;99909.69;;;5.12;91.52
6208;BME280;3137;51.550;7.060;2022-11-21T11:12:40;99897.19;;;5.28;91.22
6208;BME280;3137;51.550;7.060;2022-11-21T11:15:30;99890.53;;;5.36;91.11
6208;BME280;3137;51.550;7.060;2022-11-21T11:17:59;99887.38;;;5.43;91.09
6208;BME280;3137;51.550;7.060;2022-11-21T11:25:49;99870.25;;;5.62;91.08
6208;BME280;3137;51.550;7.060;2022-11-21T11:28:16;99871.47;;;5.70;91.19
6208;BME280;3137;51.550;7.060;2022-11-21T11:30:46;99855.41;;;5.72;91.14
6208;BME280;3137;51.550;7.060;2022-11-21T11:36:09;99852.81;;;5.85;90.85
6208;BME280;3137;51.550;7.060;2022-11-21T11:38:36;99850.56;;;5.79;90.64
6208;BME280;3137;51.550;7.060;2022-11-21T11:41:12;99845.78;;;5.84;90.63
6208;BME280;3137;51.550;7.060;2022-11-21T11:44:02;99848.31;;;5.72;90.42
6208;BME280;3137;51.550;7.060;2022-11-21T11:47:07;99834.63;;;5.79;90.65
6208;BME280;3137;51.550;7.060;2022-11-21T11:50:17;99836.75;;;5.86;90.54
6208;BME280;3137;51.550;7.060;2022-11-21T11:55:38;99819.56;;;5.92;90.79
6208;BME280;3137;51.550;7.060;2022-11-21T12:00:47;99825.69;;;6.07;90.45
6208;BME280;3137;51.550;7.060;2022-11-21T12:03:20;99813.25;;;6.07;90.68
6208;BME280;3137;51.550;7.060;2022-11-21T12:05:57;99817.63;;;6.21;90.42
6208;BME280;3137;51.550;7.060;2022-11-21T12:08:38;99808.34;;;6.27;90.54
6208;BME280;3137;51.550;7.060;2022-11-21T12:11:15;99794.88;;;6.30;90.34
6208;BME280;3137;51.550;7.060;2022-11-21T12:17:39;99790.94;;;6.35;90.46
6208;BME280;3137;51.550;7.060;2022-11-21T12:20:18;99788.03;;;6.38;90.89
6208;BME280;3137;51.550;7.060;2022-11-21T12:22:47;99776.44;;;6.52;90.99
6208;BME280;3137;51.550;7.060;2022-11-21T12:25:15;99777.91;;;6.69;90.30
6208;BME280;3137;51.550;7.060;2022-11-21T12:27:41;99787.25;;;6.75;89.45
6208;BME280;3137;51.550;7.060;2022-11-21T12:36:06;99769.88;;;6.95;88.30
6208;BME280;3137;51.550;7.060;2022-11-21T12:44:12;99752.53;;;6.89;85.18
6208;BME280;3137;51.550;7.060;2022-11-21T12:46:54;99753.59;;;6.99;85.11
6208;BME280;3137;51.550;7.060;2022-11-21T12:49:46;99738.22;;;7.03;84.24
6208;BME280;3137;51.550;7.060;2022-11-21T12:52:40;99735.78;;;7.00;83.79
6208;BME280;3137;51.550;7.060;2022-11-21T12:55:34;99737.47;;;7.01;83.65
6208;BME280;3137;51.550;7.060;2022-11-21T12:58:20;99730.22;;;7.03;83.77
6208;BME280;3137;51.550;7.060;2022-11-21T13:01:12;99719.16;;;7.09;82.91
6208;BME280;3137;51.550;7.060;2022-11-21T13:04:03;99712.75;;;7.12;83.14
6208;BME280;3137;51.550;7.060;2022-11-21T13:06:35;99717.00;;;7.14;82.11
6208;BME280;3137;51.550;7.060;2022-11-21T13:09:07;99704.19;;;7.19;82.09
6208;BME280;3137;51.550;7.060;2022-11-21T13:14:43;99691.72;;;7.20;82.03
6208;BME280;3137;51.550;7.060;2022-11-21T13:25:08;99684.69;;;7.19;81.78
6208;BME280;3137;51.550;7.060;2022-11-21T13:27:41;99684.56;;;7.20;81.79
6208;BME280;3137;51.550;7.060;2022-11-21T13:32:36;99672.72;;;7.24;81.75
6208;BME280;3137;51.550;7.060;2022-11-21T13:37:58;99667.66;;;7.21;81.58
6208;BME280;3137;51.550;7.060;2022-11-21T13:45:56;99651.78;;;7.20;81.08
6208;BME280;3137;51.550;7.060;2022-11-21T13:56:59;99638.47;;;7.20;82.00
6208;BME280;3137;51.550;7.060;2022-11-21T14:02:40;99617.78;;;7.23;81.78
6208;BME280;3137;51.550;7.060;2022-11-21T14:08:22;99610.00;;;7.20;81.38
6208;BME280;3137;51.550;7.060;2022-11-21T14:10:51;99597.78;;;7.18;81.09
6208;BME280;3137;51.550;7.060;2022-11-21T14:13:31;99597.44;;;7.22;80.98
6208;BME280;3137;51.550;7.060;2022-11-21T14:16:27;99603.16;;;7.29;80.80
6208;BME280;3137;51.550;7.060;2022-11-21T14:18:56;99590.53;;;7.20;80.77
6208;BME280;3137;51.550;7.060;2022-11-21T14:21:26;99587.13;;;7.18;80.97
6208;BME280;3137;51.550;7.060;2022-11-21T14:24:11;99582.69;;;7.18;80.94
6208;BME280;3137;51.550;7.060;2022-11-21T14:26:43;99583.38;;;7.09;81.59
6208;BME280;3137;51.550;7.060;2022-11-21T14:29:39;99571.16;;;7.07;81.37
6208;BME280;3137;51.550;7.060;2022-11-21T14:32:13;99572.00;;;7.07;81.63
6208;BME280;3137;51.550;7.060;2022-11-21T14:34:39;99559.97;;;7.01;81.61
6208;BME280;3137;51.550;7.060;2022-11-21T14:37:06;99547.59;;;6.89;81.76
6208;BME280;3137;51.550;7.060;2022-11-21T14:39:38;99537.69;;;6.80;82.46
6208;BME280;3137;51.550;7.060;2022-11-21T14:42:16;99545.75;;;6.78;82.11
6208;BME280;3137;51.550;7.060;2022-11-21T14:44:42;99543.00;;;6.80;82.26
6208;BME280;3137;51.550;7.060;2022-11-21T14:47:17;99546.34;;;6.71;82.25
6208;BME280;3137;51.550;7.060;2022-11-21T14:49:55;99542.09;;;6.68;82.59
6208;BME280;3137;51.550;7.060;2022-11-21T14:52:29;99518.09;;;6.57;83.01
6208;BME280;3137;51.550;7.060;2022-11-21T14:54:59;99502.16;;;6.57;82.96
6208;BME280;3137;51.550;7.060;2022-11-21T14:57:46;99501.25;;;6.45;83.36
6208;BME280;3137;51.550;7.060;2022-11-21T15:00:19;99515.63;;;6.43;83.27
6208;BME280;3137;51.550;7.060;2022-11-21T15:03:18;99510.00;;;6.34;83.54
6208;BME280;3137;51.550;7.060;2022-11-21T15:05:45;99499.75;;;6.30;83.64
6208;BME280;3137;51.550;7.060;2022-11-21T15:08:32;99494.78;;;6.25;83.81
6208;BME280;3137;51.550;7.060;2022-11-21T15:11:22;99488.81;;;6.22;84.07